sensor_id;sensor_type;location;lat;lon;timestamp;P1;durP1;ratioP1;P2;durP2;ratioP2
27367;SDS011;14839;48.106;11.618;2022-09-03T04:02:57;3.00;;;1.70;;
27367;SDS011;14839;48.106;11.618;2022-09-03T04:05:23;1.90;;;1.70;;
27367;SDS011;14839;48.106;11.618;2022-09-03T04:07:49;2.30;;;1.73;;
27367;SDS011;14839;48.106;11.618;2022-09-03T04:10:14;1.70;;;1.40;;
27367;SDS011;14839;48.106;11.618;2022-09-03T04:12:40;1.93;;;1.73;;
27367;SDS011;14839;48.106;11.618;2022-09-03T04:15:06;2.20;;;1.80;;
27367;SDS011;14839;48.106;11.618;2022-09-03T04:17:31;1.73;;;1.63;;
27367;SDS011;14839;48.106;11.618;2022-09-03T04:19:57;1.73;;;1.60;;
27367;SDS011;14839;48.106;11.618;2022-09-03T04:22:22;1.77;;;1.40;;
27367;SDS011;14839;48.106;11.618;2022-09-03T04:24:48;2.00;;;1.50;;
27367;SDS011;14839;48.106;11.618;2022-09-03T04:27:14;1.77;;;1.63;;
27367;SDS011;14839;48.106;11.618;2022-09-03T04:29:39;2.90;;;1.73;;
27367;SDS011;14839;48.106;11.618;2022-09-03T04:32:05;2.03;;;1.83;;
27367;SDS011;14839;48.106;11.618;2022-09-03T04:34:49;1.73;;;1.63;;
27367;SDS011;14839;48.106;11.618;2022-09-03T04:37:14;5.50;;;2.00;;
27367;SDS011;14839;48.106;11.618;2022-09-03T04:39:43;4.77;;;1.60;;
27367;SDS011;14839;48.106;11.618;2022-09-03T04:42:09;1.83;;;1.70;;
27367;SDS011;14839;48.106;11.618;2022-09-03T04:44:34;3.13;;;1.93;;
27367;SDS011;14839;48.106;11.618;2022-09-03T04:47:02;2.43;;;1.63;;
27367;SDS011;14839;48.106;11.618;2022-09-03T04:49:28;3.00;;;2.10;;
27367;SDS011;14839;48.106;11.618;2022-09-03T04:51:54;1.87;;;1.77;;
27367;SDS011;14839;48.106;11.618;2022-09-03T04:54:20;1.57;;;1.47;;
27367;SDS011;14839;48.106;11.618;2022-09-03T04:56:46;2.27;;;1.70;;
27367;SDS011;14839;48.106;11.618;2022-09-03T04:59:11;3.93;;;1.60;;
27367;SDS011;14839;48.106;11.618;2022-09-03T05:01:38;1.93;;;1.50;;
27367;SDS011;14839;48.106;11.618;2022-09-03T05:04:04;1.87;;;1.70;;
27367;SDS011;14839;48.106;11.618;2022-09-03T05:06:31;2.10;;;1.80;;
27367;SDS011;14839;48.106;11.618;2022-09-03T05:08:57;1.60;;;1.50;;
27367;SDS011;14839;48.106;11.618;2022-09-03T05:11:24;2.10;;;1.40;;
27367;SDS011;14839;48.106;11.618;2022-09-03T05:13:52;1.80;;;1.40;;
27367;SDS011;14839;48.106;11.618;2022-09-03T05:16:20;1.73;;;1.33;;
27367;SDS011;14839;48.106;11.618;2022-09-03T05:18:47;1.30;;;1.17;;
27367;SDS011;14839;48.106;11.618;2022-09-03T05:21:16;1.47;;;1.37;;
27367;SDS011;14839;48.106;11.618;2022-09-03T05:23:43;1.50;;;1.20;;
27367;SDS011;14839;48.106;11.618;2022-09-03T05:26:11;1.30;;;1.20;;
27367;SDS011;14839;48.106;11.618;2022-09-03T05:28:39;1.20;;;1.10;;
27367;SDS011;14839;48.106;11.618;2022-09-03T05:31:10;1.57;;;1.27;;
27367;SDS011;14839;48.106;11.618;2022-09-03T05:33:42;1.52;;;1.20;;
27367;SDS011;14839;48.106;11.618;2022-09-03T05:36:22;1.52;;;1.40;;
27367;SDS011;14839;48.106;11.618;2022-09-03T05:38:48;1.48;;;1.20;;
27367;SDS011;14839;48.106;11.618;2022-09-03T05:41:15;1.17;;;1.08;;
27367;SDS011;14839;48.106;11.618;2022-09-03T05:43:42;1.77;;;1.10;;
27367;SDS011;14839;48.106;11.618;2022-09-03T05:46:12;1.63;;;1.40;;
27367;SDS011;14839;48.106;11.618;2022-09-03T05:48:42;1.75;;;1.42;;
27367;SDS011;14839;48.106;11.618;2022-09-03T05:51:09;2.30;;;1.60;;
27367;SDS011;14839;48.106;11.618;2022-09-03T05:53:40;2.00;;;1.50;;
27367;SDS011;14839;48.106;11.618;2022-09-03T05:56:08;1.30;;;1.20;;
27367;SDS011;14839;48.106;11.618;2022-09-03T05:58:36;2.63;;;1.57;;
27367;SDS011;14839;48.106;11.618;2022-09-03T06:01:11;2.20;;;1.43;;
27367;SDS011;14839;48.106;11.618;2022-09-03T06:03:41;1.50;;;1.40;;
27367;SDS011;14839;48.106;11.618;2022-09-03T06:06:09;1.42;;;1.33;;
27367;SDS011;14839;48.106;11.618;2022-09-03T06:08:35;1.50;;;1.40;;
27367;SDS011;14839;48.106;11.618;2022-09-03T06:11:02;1.98;;;1.80;;
27367;SDS011;14839;48.106;11.618;2022-09-03T06:13:29;1.33;;;1.23;;
27367;SDS011;14839;48.106;11.618;2022-09-03T06:15:59;1.30;;;1.20;;
27367;SDS011;14839;48.106;11.618;2022-09-03T06:18:26;2.40;;;1.60;;
27367;SDS011;14839;48.106;11.618;2022-09-03T06:20:56;1.33;;;1.23;;
27367;SDS011;14839;48.106;11.618;2022-09-03T06:23:23;1.90;;;1.53;;
27367;SDS011;14839;48.106;11.618;2022-09-03T06:28:38;3.00;;;1.80;;
27367;SDS011;14839;48.106;11.618;2022-09-03T06:31:06;3.33;;;1.60;;
27367;SDS011;14839;48.106;11.618;2022-09-03T06:33:34;2.43;;;1.90;;
27367;SDS011;14839;48.106;11.618;2022-09-03T06:36:01;1.30;;;1.20;;
27367;SDS011;14839;48.106;11.618;2022-09-03T06:38:30;2.20;;;1.40;;
27367;SDS011;14839;48.106;11.618;2022-09-03T06:41:00;2.30;;;1.27;;
27367;SDS011;14839;48.106;11.618;2022-09-03T06:43:27;1.50;;;1.40;;
27367;SDS011;14839;48.106;11.618;2022-09-03T06:46:01;1.97;;;1.50;;
27367;SDS011;14839;48.106;11.618;2022-09-03T06:48:29;2.60;;;1.87;;
27367;SDS011;14839;48.106;11.618;2022-09-03T06:50:58;4.67;;;1.70;;
27367;SDS011;14839;48.106;11.618;2022-09-03T06:53:29;2.17;;;1.60;;
27367;SDS011;14839;48.106;11.618;2022-09-03T06:55:58;2.80;;;1.83;;
27367;SDS011;14839;48.106;11.618;2022-09-03T06:58:29;1.83;;;1.67;;
27367;SDS011;14839;48.106;11.618;2022-09-03T07:01:03;4.63;;;1.60;;
27367;SDS011;14839;48.106;11.618;2022-09-03T07:03:31;2.77;;;1.60;;
27367;SDS011;14839;48.106;11.618;2022-09-03T07:06:00;1.87;;;1.70;;
27367;SDS011;14839;48.106;11.618;2022-09-03T07:08:27;2.63;;;1.80;;
27367;SDS011;14839;48.106;11.618;2022-09-03T07:10:54;2.10;;;1.43;;
27367;SDS011;14839;48.106;11.618;2022-09-03T07:13:20;1.93;;;1.43;;
27367;SDS011;14839;48.106;11.618;2022-09-03T07:15:45;2.00;;;1.70;;
27367;SDS011;14839;48.106;11.618;2022-09-03T07:18:11;1.97;;;1.40;;
27367;SDS011;14839;48.106;11.618;2022-09-03T07:20:37;1.53;;;1.40;;
27367;SDS011;14839;48.106;11.618;2022-09-03T07:23:02;1.90;;;1.70;;
27367;SDS011;14839;48.106;11.618;2022-09-03T07:25:28;2.13;;;1.70;;
27367;SDS011;14839;48.106;11.618;2022-09-03T07:27:54;1.10;;;1.00;;
27367;SDS011;14839;48.106;11.618;2022-09-03T07:30:21;1.70;;;1.50;;
27367;SDS011;14839;48.106;11.618;2022-09-03T07:32:47;1.80;;;1.67;;
27367;SDS011;14839;48.106;11.618;2022-09-03T07:35:15;2.33;;;1.43;;
27367;SDS011;14839;48.106;11.618;2022-09-03T07:37:42;1.60;;;1.50;;
27367;SDS011;14839;48.106;11.618;2022-09-03T07:40:08;2.00;;;1.50;;
27367;SDS011;14839;48.106;11.618;2022-09-03T07:42:34;2.70;;;1.83;;
27367;SDS011;14839;48.106;11.618;2022-09-03T07:45:03;2.47;;;1.60;;
27367;SDS011;14839;48.106;11.618;2022-09-03T07:47:33;1.50;;;1.40;;
27367;SDS011;14839;48.106;11.618;2022-09-03T07:50:00;2.10;;;1.80;;
27367;SDS011;14839;48.106;11.618;2022-09-03T07:52:25;2.40;;;1.50;;
27367;SDS011;14839;48.106;11.618;2022-09-03T07:54:52;2.37;;;1.60;;
27367;SDS011;14839;48.106;11.618;2022-09-03T07:57:17;2.43;;;1.80;;
27367;SDS011;14839;48.106;11.618;2022-09-03T07:59:43;1.83;;;1.63;;
27367;SDS011;14839;48.106;11.618;2022-09-03T08:02:08;1.77;;;1.60;;
27367;SDS011;14839;48.106;11.618;2022-09-03T08:04:34;3.13;;;2.13;;
27367;SDS011;14839;48.106;11.618;2022-09-03T08:07:00;2.10;;;1.90;;
27367;SDS011;14839;48.106;11.618;2022-09-03T08:09:27;4.03;;;2.00;;
27367;SDS011;14839;48.106;11.618;2022-09-03T08:11:53;1.77;;;1.67;;
27367;SDS011;14839;48.106;11.618;2022-09-03T08:14:19;2.27;;;1.90;;
27367;SDS011;14839;48.106;11.618;2022-09-03T08:16:45;2.57;;;1.90;;
27367;SDS011;14839;48.106;11.618;2022-09-03T08:19:12;4.17;;;1.97;;
27367;SDS011;14839;48.106;11.618;2022-09-03T08:21:38;2.30;;;2.00;;
27367;SDS011;14839;48.106;11.618;2022-09-03T08:24:06;3.57;;;1.90;;
27367;SDS011;14839;48.106;11.618;2022-09-03T08:26:33;3.03;;;2.20;;
27367;SDS011;14839;48.106;11.618;2022-09-03T08:29:04;2.40;;;2.20;;
27367;SDS011;14839;48.106;11.618;2022-09-03T08:31:30;2.53;;;2.20;;
27367;SDS011;14839;48.106;11.618;2022-09-03T08:33:57;3.83;;;2.17;;
27367;SDS011;14839;48.106;11.618;2022-09-03T08:36:29;2.83;;;2.00;;
27367;SDS011;14839;48.106;11.618;2022-09-03T08:38:56;2.60;;;2.40;;
27367;SDS011;14839;48.106;11.618;2022-09-03T08:52:28;2.40;;;2.13;;
27367;SDS011;14839;48.106;11.618;2022-09-03T08:57:46;2.27;;;2.07;;
27367;SDS011;14839;48.106;11.618;2022-09-03T09:00:13;2.30;;;2.10;;
27367;SDS011;14839;48.106;11.618;2022-09-03T09:02:52;3.00;;;2.70;;
27367;SDS011;14839;48.106;11.618;2022-09-03T09:05:32;2.10;;;1.90;;
27367;SDS011;14839;48.106;11.618;2022-09-03T09:08:08;2.30;;;2.03;;
27367;SDS011;14839;48.106;11.618;2022-09-03T09:16:17;2.08;;;1.88;;
27367;SDS011;14839;48.106;11.618;2022-09-03T09:21:29;1.50;;;1.40;;
27367;SDS011;14839;48.106;11.618;2022-09-03T09:24:02;2.08;;;1.60;;
27367;SDS011;14839;48.106;11.618;2022-09-03T09:26:36;2.63;;;1.73;;
27367;SDS011;14839;48.106;11.618;2022-09-03T09:29:06;3.20;;;1.73;;
27367;SDS011;14839;48.106;11.618;2022-09-03T09:31:37;4.90;;;1.58;;
27367;SDS011;14839;48.106;11.618;2022-09-03T09:34:05;1.90;;;1.40;;
27367;SDS011;14839;48.106;11.618;2022-09-03T09:36:54;1.92;;;1.60;;
27367;SDS011;14839;48.106;11.618;2022-09-03T09:39:19;1.42;;;1.33;;
27367;SDS011;14839;48.106;11.618;2022-09-03T09:41:58;1.20;;;1.08;;
27367;SDS011;14839;48.106;11.618;2022-09-03T09:44:32;1.30;;;1.10;;
27367;SDS011;14839;48.106;11.618;2022-09-03T09:47:02;1.55;;;1.45;;
27367;SDS011;14839;48.106;11.618;2022-09-03T09:49:34;1.02;;;0.93;;
27367;SDS011;14839;48.106;11.618;2022-09-03T09:52:10;1.27;;;1.17;;
27367;SDS011;14839;48.106;11.618;2022-09-03T09:54:38;1.25;;;1.13;;
27367;SDS011;14839;48.106;11.618;2022-09-03T09:57:06;1.50;;;1.15;;
27367;SDS011;14839;48.106;11.618;2022-09-03T09:59:42;1.20;;;1.10;;
27367;SDS011;14839;48.106;11.618;2022-09-03T10:02:10;1.95;;;1.20;;
27367;SDS011;14839;48.106;11.618;2022-09-03T10:04:38;1.48;;;1.30;;
27367;SDS011;14839;48.106;11.618;2022-09-03T10:12:32;1.10;;;1.00;;
27367;SDS011;14839;48.106;11.618;2022-09-03T10:17:54;1.33;;;1.20;;
27367;SDS011;14839;48.106;11.618;2022-09-03T10:23:09;3.70;;;1.08;;
27367;SDS011;14839;48.106;11.618;2022-09-03T10:28:17;1.75;;;1.33;;
27367;SDS011;14839;48.106;11.618;2022-09-03T10:33:32;1.90;;;1.17;;
27367;SDS011;14839;48.106;11.618;2022-09-03T10:36:08;1.27;;;1.17;;
27367;SDS011;14839;48.106;11.618;2022-09-03T10:38:43;3.22;;;1.90;;
27367;SDS011;14839;48.106;11.618;2022-09-03T10:42:01;1.08;;;0.98;;
27367;SDS011;14839;48.106;11.618;2022-09-03T10:44:12;0.70;;;0.70;;
27367;SDS011;14839;48.106;11.618;2022-09-03T10:50:02;0.80;;;0.80;;
27367;SDS011;14839;48.106;11.618;2022-09-03T10:55:39;1.77;;;1.13;;
27367;SDS011;14839;48.106;11.618;2022-09-03T10:58:20;0.98;;;0.98;;
27367;SDS011;14839;48.106;11.618;2022-09-03T11:00:51;0.90;;;0.90;;
27367;SDS011;14839;48.106;11.618;2022-09-03T11:06:15;1.17;;;1.00;;
27367;SDS011;14839;48.106;11.618;2022-09-03T11:08:56;0.88;;;0.77;;
27367;SDS011;14839;48.106;11.618;2022-09-03T11:11:33;0.90;;;0.90;;
27367;SDS011;14839;48.106;11.618;2022-09-03T11:14:08;0.88;;;0.88;;
27367;SDS011;14839;48.106;11.618;2022-09-03T11:16:44;1.00;;;0.90;;
27367;SDS011;14839;48.106;11.618;2022-09-03T11:19:16;1.13;;;0.90;;
27367;SDS011;14839;48.106;11.618;2022-09-03T11:21:44;0.90;;;0.90;;
27367;SDS011;14839;48.106;11.618;2022-09-03T11:24:25;2.47;;;1.13;;
27367;SDS011;14839;48.106;11.618;2022-09-03T11:26:58;1.77;;;0.85;;
27367;SDS011;14839;48.106;11.618;2022-09-03T11:29:47;1.05;;;0.82;;
27367;SDS011;14839;48.106;11.618;2022-09-03T11:32:15;1.00;;;0.90;;
27367;SDS011;14839;48.106;11.618;2022-09-03T11:34:49;0.88;;;0.80;;
27367;SDS011;14839;48.106;11.618;2022-09-03T11:37:22;1.15;;;1.00;;
27367;SDS011;14839;48.106;11.618;2022-09-03T11:42:44;0.80;;;0.80;;
27367;SDS011;14839;48.106;11.618;2022-09-03T11:47:58;1.40;;;1.23;;
27367;SDS011;14839;48.106;11.618;2022-09-03T11:53:10;1.10;;;1.00;;
27367;SDS011;14839;48.106;11.618;2022-09-03T11:55:58;1.00;;;0.90;;
27367;SDS011;14839;48.106;11.618;2022-09-03T11:58:29;2.22;;;1.10;;
27367;SDS011;14839;48.106;11.618;2022-09-03T12:01:13;0.95;;;0.80;;
27367;SDS011;14839;48.106;11.618;2022-09-03T12:03:48;1.20;;;0.93;;
27367;SDS011;14839;48.106;11.618;2022-09-03T12:14:47;0.93;;;0.90;;
27367;SDS011;14839;48.106;11.618;2022-09-03T12:17:46;2.55;;;1.10;;
27367;SDS011;14839;48.106;11.618;2022-09-03T12:20:36;0.90;;;0.90;;
27367;SDS011;14839;48.106;11.618;2022-09-03T12:23:03;1.10;;;0.93;;
27367;SDS011;14839;48.106;11.618;2022-09-03T12:25:28;1.15;;;0.95;;
27367;SDS011;14839;48.106;11.618;2022-09-03T12:27:54;0.80;;;0.80;;
27367;SDS011;14839;48.106;11.618;2022-09-03T12:30:21;1.20;;;0.88;;
27367;SDS011;14839;48.106;11.618;2022-09-03T12:32:48;0.93;;;0.93;;
27367;SDS011;14839;48.106;11.618;2022-09-03T12:35:17;0.98;;;0.90;;
27367;SDS011;14839;48.106;11.618;2022-09-03T12:37:45;1.15;;;0.90;;
27367;SDS011;14839;48.106;11.618;2022-09-03T12:40:21;0.80;;;0.80;;
27367;SDS011;14839;48.106;11.618;2022-09-03T12:42:51;1.23;;;0.90;;
27367;SDS011;14839;48.106;11.618;2022-09-03T12:45:19;1.80;;;1.02;;
27367;SDS011;14839;48.106;11.618;2022-09-03T12:47:47;0.95;;;0.82;;
27367;SDS011;14839;48.106;11.618;2022-09-03T12:50:14;0.60;;;0.60;;
27367;SDS011;14839;48.106;11.618;2022-09-03T12:57:56;1.15;;;1.05;;
27367;SDS011;14839;48.106;11.618;2022-09-03T13:01:26;0.90;;;0.77;;
27367;SDS011;14839;48.106;11.618;2022-09-03T13:03:49;2.63;;;0.95;;
27367;SDS011;14839;48.106;11.618;2022-09-03T13:06:25;1.15;;;0.90;;
27367;SDS011;14839;48.106;11.618;2022-09-03T13:08:54;1.02;;;0.93;;
27367;SDS011;14839;48.106;11.618;2022-09-03T13:11:24;1.50;;;1.02;;
27367;SDS011;14839;48.106;11.618;2022-09-03T13:13:55;0.73;;;0.73;;
27367;SDS011;14839;48.106;11.618;2022-09-03T13:28:06;0.73;;;0.73;;
27367;SDS011;14839;48.106;11.618;2022-09-03T13:34:12;0.90;;;0.80;;
27367;SDS011;14839;48.106;11.618;2022-09-03T13:37:21;1.05;;;0.90;;
27367;SDS011;14839;48.106;11.618;2022-09-03T13:39:57;0.73;;;0.73;;
27367;SDS011;14839;48.106;11.618;2022-09-03T13:51:17;0.77;;;0.77;;
27367;SDS011;14839;48.106;11.618;2022-09-03T13:53:56;2.03;;;0.70;;
27367;SDS011;14839;48.106;11.618;2022-09-03T14:02:26;2.35;;;1.17;;
27367;SDS011;14839;48.106;11.618;2022-09-03T14:10:54;0.80;;;0.75;;
27367;SDS011;14839;48.106;11.618;2022-09-03T14:16:25;1.17;;;1.08;;
27367;SDS011;14839;48.106;11.618;2022-09-03T14:19:10;1.13;;;1.02;;
27367;SDS011;14839;48.106;11.618;2022-09-03T14:21:49;3.83;;;1.48;;
27367;SDS011;14839;48.106;11.618;2022-09-03T14:24:26;1.20;;;0.93;;
27367;SDS011;14839;48.106;11.618;2022-09-03T14:27:08;1.98;;;1.05;;
27367;SDS011;14839;48.106;11.618;2022-09-03T14:29:35;2.35;;;1.42;;
27367;SDS011;14839;48.106;11.618;2022-09-03T14:32:16;1.30;;;1.00;;
27367;SDS011;14839;48.106;11.618;2022-09-03T14:38:08;1.17;;;0.65;;
27367;SDS011;14839;48.106;11.618;2022-09-03T14:41:04;3.73;;;1.10;;
27367;SDS011;14839;48.106;11.618;2022-09-03T14:55:00;1.63;;;0.90;;
27367;SDS011;14839;48.106;11.618;2022-09-03T15:11:34;2.83;;;0.90;;
27367;SDS011;14839;48.106;11.618;2022-09-03T15:14:33;1.20;;;0.80;;
27367;SDS011;14839;48.106;11.618;2022-09-03T15:17:04;1.53;;;0.70;;
27367;SDS011;14839;48.106;11.618;2022-09-03T15:39:58;2.00;;;0.80;;
27367;SDS011;14839;48.106;11.618;2022-09-03T15:42:29;2.53;;;0.90;;
27367;SDS011;14839;48.106;11.618;2022-09-03T15:45:00;1.83;;;0.80;;
27367;SDS011;14839;48.106;11.618;2022-09-03T15:50:16;3.40;;;1.10;;
27367;SDS011;14839;48.106;11.618;2022-09-03T15:53:15;0.93;;;0.70;;
27367;SDS011;14839;48.106;11.618;2022-09-03T15:56:05;4.17;;;0.87;;
27367;SDS011;14839;48.106;11.618;2022-09-03T15:58:58;4.40;;;1.07;;
27367;SDS011;14839;48.106;11.618;2022-09-03T16:01:33;3.60;;;0.90;;
27367;SDS011;14839;48.106;11.618;2022-09-03T16:06:43;3.27;;;0.83;;
27367;SDS011;14839;48.106;11.618;2022-09-03T16:09:44;2.53;;;0.90;;
27367;SDS011;14839;48.106;11.618;2022-09-03T16:15:50;3.47;;;0.93;;
27367;SDS011;14839;48.106;11.618;2022-09-03T16:18:32;2.00;;;1.07;;
27367;SDS011;14839;48.106;11.618;2022-09-03T16:21:08;1.60;;;0.73;;
27367;SDS011;14839;48.106;11.618;2022-09-03T16:23:45;1.40;;;0.97;;
27367;SDS011;14839;48.106;11.618;2022-09-03T16:26:31;1.33;;;0.90;;
27367;SDS011;14839;48.106;11.618;2022-09-03T16:29:14;1.70;;;0.70;;
27367;SDS011;14839;48.106;11.618;2022-09-03T16:31:47;2.73;;;1.00;;
27367;SDS011;14839;48.106;11.618;2022-09-03T16:34:48;0.83;;;0.60;;
27367;SDS011;14839;48.106;11.618;2022-09-03T16:37:21;1.20;;;0.80;;
27367;SDS011;14839;48.106;11.618;2022-09-03T16:40:11;3.93;;;0.90;;
27367;SDS011;14839;48.106;11.618;2022-09-03T16:42:41;0.67;;;0.57;;
27367;SDS011;14839;48.106;11.618;2022-09-03T16:45:13;1.43;;;1.00;;
27367;SDS011;14839;48.106;11.618;2022-09-03T16:50:54;1.70;;;0.90;;
27367;SDS011;14839;48.106;11.618;2022-09-03T16:59:10;0.60;;;0.60;;
27367;SDS011;14839;48.106;11.618;2022-09-03T17:04:23;0.60;;;0.60;;
27367;SDS011;14839;48.106;11.618;2022-09-03T17:09:49;0.80;;;0.70;;
27367;SDS011;14839;48.106;11.618;2022-09-03T17:15:37;0.87;;;0.70;;
27367;SDS011;14839;48.106;11.618;2022-09-03T17:18:20;1.13;;;0.87;;
27367;SDS011;14839;48.106;11.618;2022-09-03T17:21:07;1.43;;;0.73;;
27367;SDS011;14839;48.106;11.618;2022-09-03T17:29:25;1.37;;;0.70;;
27367;SDS011;14839;48.106;11.618;2022-09-03T17:35:18;1.93;;;0.80;;
27367;SDS011;14839;48.106;11.618;2022-09-03T17:38:09;1.20;;;0.80;;
27367;SDS011;14839;48.106;11.618;2022-09-03T17:40:40;1.63;;;0.77;;
27367;SDS011;14839;48.106;11.618;2022-09-03T17:43:51;1.23;;;0.90;;
27367;SDS011;14839;48.106;11.618;2022-09-03T17:46:56;1.20;;;0.53;;
27367;SDS011;14839;48.106;11.618;2022-09-03T17:49:57;0.83;;;0.60;;
27367;SDS011;14839;48.106;11.618;2022-09-03T17:57:55;0.60;;;0.60;;
27367;SDS011;14839;48.106;11.618;2022-09-03T18:03:45;1.00;;;0.70;;
27367;SDS011;14839;48.106;11.618;2022-09-03T18:09:18;1.47;;;0.80;;
27367;SDS011;14839;48.106;11.618;2022-09-03T18:11:53;1.00;;;0.70;;
27367;SDS011;14839;48.106;11.618;2022-09-03T18:14:39;1.63;;;0.73;;
27367;SDS011;14839;48.106;11.618;2022-09-03T18:17:30;0.90;;;0.80;;
27367;SDS011;14839;48.106;11.618;2022-09-03T18:20:02;0.63;;;0.50;;
27367;SDS011;14839;48.106;11.618;2022-09-03T18:25:53;0.93;;;0.53;;
27367;SDS011;14839;48.106;11.618;2022-09-03T18:28:56;0.60;;;0.60;;
27367;SDS011;14839;48.106;11.618;2022-09-03T18:31:42;1.03;;;0.83;;
27367;SDS011;14839;48.106;11.618;2022-09-03T18:34:31;0.90;;;0.80;;
27367;SDS011;14839;48.106;11.618;2022-09-03T18:37:19;0.60;;;0.60;;
27367;SDS011;14839;48.106;11.618;2022-09-03T18:40:09;2.10;;;0.70;;
27367;SDS011;14839;48.106;11.618;2022-09-03T18:57:50;1.13;;;0.63;;
27367;SDS011;14839;48.106;11.618;2022-09-03T19:00:39;0.83;;;0.80;;
27367;SDS011;14839;48.106;11.618;2022-09-03T19:03:38;0.50;;;0.43;;
27367;SDS011;14839;48.106;11.618;2022-09-03T19:10:07;1.27;;;0.90;;
27367;SDS011;14839;48.106;11.618;2022-09-03T19:16:25;0.77;;;0.77;;
27367;SDS011;14839;48.106;11.618;2022-09-03T19:22:34;1.40;;;0.83;;
27367;SDS011;14839;48.106;11.618;2022-09-03T19:25:20;2.20;;;1.37;;
27367;SDS011;14839;48.106;11.618;2022-09-03T19:28:09;1.57;;;0.73;;
27367;SDS011;14839;48.106;11.618;2022-09-03T19:34:16;1.50;;;0.80;;
27367;SDS011;14839;48.106;11.618;2022-09-03T19:46:56;1.07;;;0.90;;
27367;SDS011;14839;48.106;11.618;2022-09-03T19:55:38;1.60;;;1.10;;
27367;SDS011;14839;48.106;11.618;2022-09-03T19:58:28;1.97;;;1.23;;
27367;SDS011;14839;48.106;11.618;2022-09-03T20:01:14;0.73;;;0.73;;
27367;SDS011;14839;48.106;11.618;2022-09-03T20:04:11;1.07;;;0.87;;
27367;SDS011;14839;48.106;11.618;2022-09-03T20:06:57;1.73;;;0.80;;
27367;SDS011;14839;48.106;11.618;2022-09-03T20:09:44;2.57;;;1.03;;
27367;SDS011;14839;48.106;11.618;2022-09-03T20:12:31;1.07;;;0.93;;
27367;SDS011;14839;48.106;11.618;2022-09-03T20:15:04;1.13;;;1.00;;
27367;SDS011;14839;48.106;11.618;2022-09-03T20:17:40;1.10;;;1.00;;
27367;SDS011;14839;48.106;11.618;2022-09-03T20:23:11;2.93;;;1.10;;
27367;SDS011;14839;48.106;11.618;2022-09-03T20:40:01;1.20;;;1.10;;
27367;SDS011;14839;48.106;11.618;2022-09-03T20:45:13;1.77;;;1.13;;
27367;SDS011;14839;48.106;11.618;2022-09-03T20:50:30;1.53;;;1.07;;
27367;SDS011;14839;48.106;11.618;2022-09-03T20:55:48;2.47;;;1.00;;
27367;SDS011;14839;48.106;11.618;2022-09-03T20:58:27;2.03;;;1.20;;
27367;SDS011;14839;48.106;11.618;2022-09-03T21:04:24;1.97;;;1.17;;
27367;SDS011;14839;48.106;11.618;2022-09-03T21:10:29;1.50;;;1.10;;
27367;SDS011;14839;48.106;11.618;2022-09-03T21:13:11;2.43;;;1.27;;
27367;SDS011;14839;48.106;11.618;2022-09-03T21:24:20;1.50;;;1.10;;
27367;SDS011;14839;48.106;11.618;2022-09-03T21:26:58;5.60;;;1.30;;
27367;SDS011;14839;48.106;11.618;2022-09-03T21:29:33;2.10;;;1.17;;
27367;SDS011;14839;48.106;11.618;2022-09-03T21:32:14;2.67;;;1.00;;
27367;SDS011;14839;48.106;11.618;2022-09-03T21:37:53;1.10;;;1.00;;
27367;SDS011;14839;48.106;11.618;2022-09-03T21:40:27;1.70;;;1.30;;
27367;SDS011;14839;48.106;11.618;2022-09-03T21:42:57;1.10;;;1.00;;
27367;SDS011;14839;48.106;11.618;2022-09-03T21:45:43;1.13;;;1.03;;
27367;SDS011;14839;48.106;11.618;2022-09-03T21:48:33;1.00;;;0.90;;
27367;SDS011;14839;48.106;11.618;2022-09-03T21:51:07;1.23;;;0.93;;
27367;SDS011;14839;48.106;11.618;2022-09-03T21:56:10;2.37;;;1.10;;
27367;SDS011;14839;48.106;11.618;2022-09-03T22:01:30;1.40;;;1.00;;
27367;SDS011;14839;48.106;11.618;2022-09-03T22:04:26;1.13;;;1.00;;
27367;SDS011;14839;48.106;11.618;2022-09-03T22:07:02;1.00;;;0.80;;
27367;SDS011;14839;48.106;11.618;2022-09-03T22:15:04;0.60;;;0.60;;
27367;SDS011;14839;48.106;11.618;2022-09-03T22:20:13;1.30;;;0.87;;
27367;SDS011;14839;48.106;11.618;2022-09-03T22:25:09;1.03;;;0.77;;
27367;SDS011;14839;48.106;11.618;2022-09-03T22:27:43;1.40;;;1.10;;
